San Esteban, Argentina
Current Conditions -  °F | °C
As of 2:00 PM on Saturday 20 Dec 2014 (Local Time) from SACO Reporting Station
Scattered Clouds Scattered Clouds  
Wind Chill: 23°   Ceiling: Unl
Heat Index: 23°   Visibility: 6mi
Dew Point: 12°   Wind: 18mph
Humidity: 50%   Direction: 180°S
Pressure: 29.71"   Gusts: NA
Location:  30.92°S, 64.55°W
Report Text: SACO 201700Z 18016KT 9999 SCT030 SCT10023/12 Q1006
Loading
Personal Weather Stations






























Interactive Weather Map New forecast layout! Learn more

10-Day Weather Forecast

Advertisements
Track Severe Weather on mobile